Lop Buri, Thailand

10:09 PM ICT on September 04, 2015 (GMT +0700)
Bangkok International | | Change Station
CLOSE
Current Station
Airport
Location: Bangkok (Don Mueang),
Elevation: 13 ft
Nearby Weather Stations

Elev 13 ft 13.92 °N, 100.61 °E | Updated 39 minutes ago

Mostly Cloudy
Mostly Cloudy
82 °F
Feels Like 90 °F
N
7
Wind Variable Wind from West

Today
High -- | Low -- °F
--% Chance of Precip.
Yesterday
High -- | Low -- °F
Precip. -- in
6:05 AM 6:27 PM
Waning Gibbous, 59% visible
Pressure 29.92 in
Visibility 6.2 miles
Clouds Few 2000 ft
Mostly Cloudy 12000 ft
Mostly Cloudy 30000 ft
Heat Index 90 °F
Dew Point 75 °F
Humidity 79%
Rainfall 0.00 in
Snow Depth Not available.
UV 0 out of 12
Pollen Not available.
Air Quality Not available.
Flu Activity Not available.
METAR VTBD 041430Z 27006KT 230V290 9999 FEW020 BKN120 BKN300 28/24 Q1013 NOSIG
Pressure 29.92 in
Visibility 6.2 miles
Clouds Few 2000 ft
Mostly Cloudy 12000 ft
Mostly Cloudy 30000 ft
Heat Index 90 °F
Dew Point 75 °F
Humidity 79%
Rainfall 0.00 in
Snow Depth Not available.
UV 0 out of 12
Pollen Not available.
Air Quality Not available.
Flu Activity Not available.
METAR VTBD 041430Z 27006KT 230V290 9999 FEW020 BKN120 BKN300 28/24 Q1013 NOSIG

10-Day Weather Forecast

×

Almanac

Astronomy

Sep. 04, 2015 Rise Set
Actual Time
Civil Twilight
Nautical Twilight
Astronomical Twilight
Moon
Length of Visible Light
Length of Day
Tomorrow will be .
, % of the Moon is Illuminated

Today's Extremes

Country Highs Country Lows

Community

WunderPhotos

Upload Photos

1,852,187 photos uploaded!

WunderBlogs® & News

Nearby

Air Quality

  Air Quality AQ Index Pollutant
Not available.

Snow Depth

Station Depth Elevation

Earthquake Activity

City Distance Mag. Time & Date
Minimum magnitude displayed is 2.5.

Coastal Water Temperatures

Place Temperature

Stations

Nearby Weather Stations

Station Location Temp. Windchill Dew Point Humidity Wind Precip. Elev Updated Type